Time;durP1;ratioP1;P1;durP2;ratioP2;P2;SDS_P1;SDS_P2;PMS_P1;PMS_P2;Temp;Humidity;BMP_temperature;BMP_pressure;BME280_temperature;BME280_humidity;BME280_pressure;Samples;Min_cycle;Max_cycle;Signal;HPM_P1;HPM_P2
2023/09/18 00:01:58;;;;;;;1.13;1.13;;;;;;;19.82;88.27;95103.53;4339250;32;20263;-63
2023/09/18 00:04:25;;;;;;;1.90;1.80;;;;;;;19.78;87.37;95105.38;4360016;32;20188;-63
2023/09/18 00:06:50;;;;;;;0.83;0.83;;;;;;;19.84;88.58;95095.88;4358311;32;20176;-63
2023/09/18 00:09:16;;;;;;;1.00;1.00;;;;;;;19.81;87.81;95096.59;4375629;32;20204;-63
2023/09/18 00:11:41;;;;;;;1.47;1.27;;;;;;;19.77;87.71;95089.59;4368264;32;20177;-63
2023/09/18 00:14:09;;;;;;;0.70;0.70;;;;;;;19.66;87.72;95084.00;4362390;32;20202;-63
2023/09/18 00:16:36;;;;;;;0.63;0.63;;;;;;;19.73;87.07;95084.16;4336209;32;22165;-63
2023/09/18 00:19:02;;;;;;;0.77;0.77;;;;;;;19.50;85.37;95094.09;4361913;32;20209;-62
2023/09/18 00:21:30;;;;;;;0.70;0.70;;;;;;;19.55;86.44;95083.81;4358071;32;20224;-62
2023/09/18 00:23:58;;;;;;;5.20;1.83;;;;;;;19.67;87.85;95087.50;4365817;32;20256;-62
2023/09/18 00:26:25;;;;;;;1.43;1.33;;;;;;;19.71;88.14;95075.66;4363321;32;20184;-63
2023/09/18 00:28:50;;;;;;;1.33;1.07;;;;;;;19.64;87.03;95080.13;4377319;32;20204;-63
2023/09/18 00:31:16;;;;;;;1.13;0.70;;;;;;;19.66;86.84;95077.84;4351126;32;20201;-62
2023/09/18 00:33:41;;;;;;;1.80;1.70;;;;;;;19.70;87.61;95068.72;4362412;32;20188;-62
2023/09/18 00:36:07;;;;;;;1.20;0.70;;;;;;;19.68;86.18;95056.75;4360335;32;20177;-63
2023/09/18 00:38:33;;;;;;;0.70;0.70;;;;;;;19.44;84.58;95047.81;4346923;32;20382;-63
2023/09/18 00:41:01;;;;;;;1.50;1.50;;;;;;;19.61;87.48;95048.53;4355047;32;20180;-63
2023/09/18 00:43:27;;;;;;;1.50;1.47;;;;;;;19.58;86.23;95047.31;4353305;32;20219;-62
2023/09/18 00:45:55;;;;;;;0.93;0.93;;;;;;;19.39;85.98;95042.72;4353865;32;20192;-62
2023/09/18 00:48:23;;;;;;;0.70;0.70;;;;;;;19.39;85.05;95031.97;4346745;32;20203;-62
2023/09/18 00:50:49;;;;;;;1.10;1.10;;;;;;;19.39;85.43;95033.88;4339240;32;20240;-62
2023/09/18 00:53:21;;;;;;;1.00;1.00;;;;;;;19.46;86.74;95042.09;4360916;32;20212;-62
2023/09/18 00:55:47;;;;;;;0.90;0.90;;;;;;;19.39;84.46;95040.03;4341327;32;20193;-62
2023/09/18 00:58:13;;;;;;;1.17;1.07;;;;;;;19.60;87.11;95030.81;4375070;32;20199;-62
2023/09/18 01:00:40;;;;;;;1.00;1.00;;;;;;;19.71;86.35;95037.19;4362922;32;20177;-62
2023/09/18 01:03:07;;;;;;;0.70;0.70;;;;;;;19.67;85.08;95031.75;4372241;32;20200;-62
2023/09/18 01:05:33;;;;;;;1.00;1.00;;;;;;;19.59;83.21;95032.75;4367545;32;20195;-63
2023/09/18 01:07:59;;;;;;;0.70;0.70;;;;;;;19.48;84.85;95018.31;4361560;32;20186;-62
2023/09/18 01:10:32;;;;;;;0.40;0.40;;;;;;;19.42;82.78;95019.72;4359186;32;20189;-62
2023/09/18 01:13:13;;;;;;;0.90;0.90;;;;;;;19.23;84.34;95024.00;4329075;32;20247;-62
2023/09/18 01:15:56;;;;;;;2.57;1.20;;;;;;;19.52;86.22;95019.94;4356093;32;20188;-62
2023/09/18 01:18:21;;;;;;;1.13;1.13;;;;;;;19.20;83.30;95013.94;4351862;32;20241;-62
2023/09/18 01:20:47;;;;;;;1.03;1.03;;;;;;;19.30;85.23;95017.19;4349620;32;20263;-62
2023/09/18 01:23:13;;;;;;;1.80;1.70;;;;;;;19.32;86.28;95015.72;4335681;32;20202;-62
2023/09/18 01:25:38;;;;;;;0.53;0.53;;;;;;;19.47;85.60;95019.44;4343443;32;20203;-62
2023/09/18 01:28:05;;;;;;;3.40;1.13;;;;;;;19.58;85.15;95017.72;4334714;32;20299;-62
2023/09/18 01:30:30;;;;;;;1.10;1.00;;;;;;;19.69;84.83;95016.00;4346250;32;20185;-62
2023/09/18 01:32:59;;;;;;;0.60;0.60;;;;;;;19.68;84.00;95017.16;4334309;32;20188;-62
2023/09/18 01:35:29;;;;;;;0.70;0.70;;;;;;;19.63;85.05;95009.37;4347325;32;20239;-62
2023/09/18 01:37:59;;;;;;;0.80;0.80;;;;;;;19.62;82.90;95013.19;4346091;32;20188;-62
2023/09/18 01:40:26;;;;;;;0.90;0.90;;;;;;;19.68;83.14;95011.00;4337743;32;20193;-62
2023/09/18 01:42:57;;;;;;;1.67;1.57;;;;;;;19.66;83.46;95024.81;4356771;32;20181;-62
2023/09/18 01:45:25;;;;;;;0.60;0.60;;;;;;;19.66;82.49;95027.50;4359580;32;20230;-62
2023/09/18 01:47:52;;;;;;;1.20;1.20;;;;;;;19.69;84.09;95015.25;4340912;32;20232;-62
2023/09/18 01:50:17;;;;;;;0.83;0.83;;;;;;;19.60;83.79;95010.06;4354781;32;20211;-62
2023/09/18 01:52:45;;;;;;;0.60;0.60;;;;;;;19.63;83.91;94997.81;4360820;32;20185;-61
2023/09/18 01:55:12;;;;;;;1.00;1.00;;;;;;;19.69;83.43;94993.69;4324895;32;20196;-62
2023/09/18 01:57:37;;;;;;;0.93;0.93;;;;;;;19.70;84.78;94993.34;4340990;32;20192;-62
2023/09/18 02:00:07;;;;;;;0.93;0.73;;;;;;;19.82;83.70;94985.06;4366261;32;20268;-62
2023/09/18 02:02:35;;;;;;;0.43;0.43;;;;;;;19.63;82.51;94981.66;4341894;32;20330;-62
2023/09/18 02:05:03;;;;;;;1.53;1.43;;;;;;;19.53;82.44;94972.28;4326371;32;20191;-63
2023/09/18 02:07:28;;;;;;;0.53;0.53;;;;;;;19.66;83.85;94975.56;4352092;32;20213;-62
2023/09/18 02:09:55;;;;;;;1.00;1.00;;;;;;;19.66;83.33;94979.03;4357938;32;20204;-62
2023/09/18 02:12:22;;;;;;;0.70;0.70;;;;;;;19.60;82.61;94985.84;4364488;32;20199;-62
2023/09/18 02:14:50;;;;;;;0.77;0.77;;;;;;;19.60;83.69;94982.38;4357718;32;20180;-62
2023/09/18 02:17:17;;;;;;;0.83;0.83;;;;;;;19.54;81.79;94973.81;4361158;32;20185;-63
2023/09/18 02:19:44;;;;;;;0.70;0.70;;;;;;;19.51;82.46;94971.88;4361968;32;20185;-62
2023/09/18 02:22:13;;;;;;;0.50;0.50;;;;;;;19.46;82.14;94972.13;4359262;32;20189;-62
2023/09/18 02:24:39;;;;;;;0.90;0.90;;;;;;;19.36;83.16;94961.94;4342268;32;20227;-63
2023/09/18 02:27:06;;;;;;;0.87;0.87;;;;;;;19.36;83.45;94961.94;4344888;32;20193;-62
2023/09/18 02:29:32;;;;;;;0.93;0.93;;;;;;;19.50;83.18;94963.03;4337960;32;20267;-62
2023/09/18 02:31:58;;;;;;;0.93;0.93;;;;;;;19.51;82.41;94961.88;4360159;32;20193;-63
2023/09/18 02:34:23;;;;;;;0.70;0.70;;;;;;;19.39;80.27;94959.31;4346367;32;20189;-61
2023/09/18 02:36:50;;;;;;;0.80;0.80;;;;;;;19.45;83.06;94955.22;4350600;32;20223;-61
2023/09/18 02:39:15;;;;;;;0.67;0.67;;;;;;;19.54;83.56;94958.44;4333295;32;20239;-62
2023/09/18 02:41:41;;;;;;;1.00;1.00;;;;;;;19.57;83.22;94962.34;4352855;32;20253;-62
2023/09/18 02:44:07;;;;;;;0.47;0.47;;;;;;;19.48;79.47;94961.78;4348855;32;20263;-62
2023/09/18 02:46:34;;;;;;;0.83;0.83;;;;;;;19.30;80.20;94952.63;4361883;32;20299;-62
2023/09/18 02:49:02;;;;;;;0.93;0.70;;;;;;;19.42;82.26;94944.38;4356093;32;20189;-62
2023/09/18 02:51:27;;;;;;;0.70;0.70;;;;;;;19.54;82.83;94939.63;4353301;32;20264;-62
2023/09/18 02:53:52;;;;;;;1.17;0.93;;;;;;;19.50;82.85;94949.56;4345532;32;20189;-62
2023/09/18 02:56:19;;;;;;;0.87;0.70;;;;;;;19.46;82.82;94934.47;4363150;32;20237;-62
2023/09/18 02:58:45;;;;;;;0.40;0.40;;;;;;;19.44;83.15;94929.44;4364169;32;20191;-61
2023/09/18 03:01:12;;;;;;;0.73;0.73;;;;;;;19.60;84.09;94923.94;4362135;32;20198;-62
2023/09/18 03:03:37;;;;;;;0.60;0.60;;;;;;;19.56;82.62;94929.28;4348943;32;20185;-62
2023/09/18 03:06:07;;;;;;;0.50;0.50;;;;;;;19.63;82.80;94925.94;4332058;32;20291;-62
2023/09/18 03:08:33;;;;;;;0.30;0.30;;;;;;;19.41;80.50;94921.31;4363896;32;20199;-62
2023/09/18 03:11:01;;;;;;;1.60;1.20;;;;;;;19.49;81.08;94917.59;4355772;32;20248;-61
2023/09/18 03:13:30;;;;;;;1.60;1.03;;;;;;;19.43;82.04;94924.41;4348704;32;20215;-62
2023/09/18 03:15:57;;;;;;;0.80;0.80;;;;;;;19.50;81.29;94927.25;4350969;32;20196;-62
2023/09/18 03:18:23;;;;;;;1.53;0.90;;;;;;;19.49;81.14;94929.16;4346196;32;20203;-62
2023/09/18 03:20:49;;;;;;;0.77;0.77;;;;;;;19.47;81.20;94930.63;4343576;32;20232;-62
2023/09/18 03:23:17;;;;;;;0.77;0.77;;;;;;;19.67;83.53;94918.69;4350940;32;20189;-62
2023/09/18 03:25:47;;;;;;;0.40;0.40;;;;;;;19.47;81.48;94914.50;4365684;32;20194;-62
2023/09/18 03:28:13;;;;;;;0.67;0.67;;;;;;;19.56;81.56;94918.50;4350026;32;20189;-62
2023/09/18 03:30:40;;;;;;;0.80;0.80;;;;;;;19.34;79.40;94913.88;4372971;32;20181;-62
2023/09/18 03:33:06;;;;;;;5.00;1.00;;;;;;;19.40;81.74;94899.00;4355744;32;20299;-62
2023/09/18 03:35:45;;;;;;;0.87;0.87;;;;;;;19.60;83.19;94902.41;4349085;32;20264;-62
2023/09/18 03:38:12;;;;;;;1.27;0.87;;;;;;;19.56;80.97;94893.50;4357198;32;20188;-62
2023/09/18 03:40:38;;;;;;;0.73;0.70;;;;;;;19.50;80.19;94897.66;4319249;32;20189;-62
2023/09/18 03:43:03;;;;;;;0.87;0.87;;;;;;;19.63;81.80;94890.16;4355343;32;20302;-62
2023/09/18 03:45:31;;;;;;;0.80;0.80;;;;;;;19.53;81.75;94891.56;4368932;32;20270;-62
2023/09/18 03:47:56;;;;;;;1.20;1.20;;;;;;;19.53;80.20;94899.63;4361540;32;20177;-61
2023/09/18 03:50:23;;;;;;;0.60;0.60;;;;;;;19.62;80.69;94888.59;4336329;32;20252;-62
2023/09/18 03:52:48;;;;;;;1.23;1.23;;;;;;;19.47;78.78;94884.91;4373738;32;20231;-62
2023/09/18 03:55:14;;;;;;;0.33;0.33;;;;;;;19.45;80.33;94876.41;4349845;32;20194;-63
2023/09/18 03:57:42;;;;;;;0.80;0.80;;;;;;;19.48;81.55;94863.00;4361048;32;20235;-62
2023/09/18 04:00:08;;;;;;;0.53;0.53;;;;;;;19.43;82.27;94857.94;4363530;32;20222;-62
2023/09/18 04:02:35;;;;;;;1.03;0.97;;;;;;;19.43;82.04;94857.16;4332048;32;20294;-63
2023/09/18 04:05:03;;;;;;;1.73;1.13;;;;;;;19.46;81.48;94862.59;4350247;32;20204;-62
2023/09/18 04:07:29;;;;;;;0.90;0.63;;;;;;;19.58;81.76;94860.84;4370741;32;20231;-62
2023/09/18 04:09:54;;;;;;;0.90;0.90;;;;;;;19.37;77.37;94862.03;4358810;32;20204;-63
2023/09/18 04:12:19;;;;;;;0.80;0.80;;;;;;;19.53;82.68;94864.66;4360472;32;20193;-62
2023/09/18 04:14:46;;;;;;;1.13;0.80;;;;;;;19.50;81.09;94870.75;4362690;32;20191;-62
2023/09/18 04:17:15;;;;;;;0.60;0.60;;;;;;;19.50;79.29;94860.00;4355385;32;20232;-62
2023/09/18 04:19:45;;;;;;;0.73;0.73;;;;;;;19.54;78.57;94858.88;4363197;32;20200;-62
2023/09/18 04:22:12;;;;;;;0.40;0.40;;;;;;;19.52;82.64;94852.34;4345299;32;20233;-62
2023/09/18 04:24:37;;;;;;;0.50;0.50;;;;;;;19.34;80.57;94843.94;4348676;32;20211;-61
2023/09/18 04:27:03;;;;;;;3.53;1.53;;;;;;;19.40;81.45;94844.41;4360840;32;20269;-62
2023/09/18 04:29:28;;;;;;;0.90;0.60;;;;;;;19.38;79.50;94844.78;4348160;32;20224;-62
2023/09/18 04:31:55;;;;;;;0.40;0.40;;;;;;;19.30;80.73;94850.41;4346153;32;20234;-62
2023/09/18 04:34:21;;;;;;;2.00;1.40;;;;;;;19.31;81.04;94846.59;4353900;32;20178;-62
2023/09/18 04:36:47;;;;;;;0.63;0.63;;;;;;;19.33;81.66;94844.31;4331479;32;20211;-62
2023/09/18 04:39:15;;;;;;;0.80;0.80;;;;;;;19.27;81.03;94829.62;4333078;32;20182;-62
2023/09/18 04:41:42;;;;;;;11.67;1.70;;;;;;;19.28;80.54;94831.94;4352762;32;20204;-62
2023/09/18 04:44:09;;;;;;;1.13;1.13;;;;;;;19.38;80.46;94834.00;4339463;32;20205;-62
2023/09/18 04:46:35;;;;;;;2.80;1.90;;;;;;;19.23;80.84;94841.09;4318445;32;20208;-62
2023/09/18 04:49:03;;;;;;;7.37;1.50;;;;;;;19.19;80.68;94834.09;4359592;32;20264;-62
2023/09/18 04:51:30;;;;;;;2.07;1.03;;;;;;;19.25;81.24;94842.66;4363308;32;20228;-62
2023/09/18 04:53:56;;;;;;;0.60;0.60;;;;;;;19.20;82.21;94839.13;4354689;32;20191;-62
2023/09/18 04:56:22;;;;;;;0.70;0.70;;;;;;;19.19;80.43;94842.16;4367802;32;20290;-62
2023/09/18 04:58:49;;;;;;;3.17;0.90;;;;;;;19.20;80.79;94844.50;4348640;32;20199;-62
2023/09/18 05:01:18;;;;;;;0.47;0.30;;;;;;;19.18;80.00;94843.28;4358708;32;20248;-62
2023/09/18 05:03:45;;;;;;;1.17;1.10;;;;;;;19.22;79.47;94844.91;4365615;32;20186;-63
2023/09/18 05:06:12;;;;;;;1.30;0.70;;;;;;;19.10;81.86;94838.94;4338924;32;20197;-62
2023/09/18 05:08:40;;;;;;;0.80;0.80;;;;;;;19.16;80.75;94838.28;4360345;32;20180;-62
2023/09/18 05:11:07;;;;;;;0.70;0.70;;;;;;;19.12;80.30;94845.50;4343004;32;20340;-62
2023/09/18 05:13:34;;;;;;;0.50;0.50;;;;;;;19.23;81.58;94846.47;4362507;32;20180;-62
2023/09/18 05:16:03;;;;;;;0.50;0.50;;;;;;;19.06;80.41;94852.34;4376676;32;20248;-62
2023/09/18 05:18:30;;;;;;;0.63;0.63;;;;;;;19.28;80.96;94858.06;4356271;32;20236;-62
2023/09/18 05:20:55;;;;;;;1.63;0.97;;;;;;;19.25;80.25;94867.62;4348784;32;20267;-62
2023/09/18 05:23:21;;;;;;;1.47;1.33;;;;;;;19.11;81.45;94859.34;4352514;32;20193;-62
2023/09/18 05:25:46;;;;;;;0.87;0.87;;;;;;;19.26;79.85;94860.34;4345507;32;20256;-62
2023/09/18 05:28:13;;;;;;;0.50;0.50;;;;;;;19.39;80.22;94870.53;4361131;32;20197;-62
2023/09/18 05:30:40;;;;;;;0.50;0.50;;;;;;;19.32;78.58;94869.66;4339796;32;20207;-62
2023/09/18 05:33:07;;;;;;;0.57;0.57;;;;;;;19.33;79.56;94860.47;4343805;32;20256;-62
2023/09/18 05:35:51;;;;;;;1.93;0.83;;;;;;;19.12;80.22;94863.56;4350615;32;20189;-62
2023/09/18 05:38:17;;;;;;;0.73;0.73;;;;;;;19.29;80.64;94867.69;4352994;32;20189;-62
2023/09/18 05:40:45;;;;;;;1.10;1.00;;;;;;;19.37;81.48;94872.81;4372981;32;20184;-62
2023/09/18 05:43:12;;;;;;;2.43;0.90;;;;;;;19.31;80.79;94871.56;4342020;32;20226;-62
2023/09/18 05:45:40;;;;;;;1.13;1.13;;;;;;;19.29;80.64;94870.38;4361326;32;20235;-62
2023/09/18 05:48:07;;;;;;;1.03;0.83;;;;;;;19.28;81.21;94869.59;4354877;32;20189;-62
2023/09/18 05:50:35;;;;;;;0.90;0.90;;;;;;;19.16;81.39;94875.94;4371320;32;20189;-62
2023/09/18 05:53:03;;;;;;;0.87;0.87;;;;;;;19.30;81.21;94874.62;4342041;32;20193;-63
2023/09/18 05:55:33;;;;;;;0.90;0.90;;;;;;;19.28;79.87;94868.81;4378812;32;20307;-63
2023/09/18 05:57:59;;;;;;;1.00;1.00;;;;;;;19.22;81.63;94866.44;4358245;32;20193;-63
2023/09/18 06:00:26;;;;;;;2.97;1.53;;;;;;;19.34;81.24;94853.91;4354776;32;20180;-63
2023/09/18 06:02:54;;;;;;;1.17;1.10;;;;;;;19.33;80.66;94845.06;4358721;32;20195;-63
2023/09/18 06:05:21;;;;;;;4.17;1.57;;;;;;;19.34;80.73;94845.84;4358412;32;20196;-62
2023/09/18 06:07:49;;;;;;;2.23;1.20;;;;;;;19.33;81.62;94831.63;4353874;32;20239;-63
2023/09/18 06:10:16;;;;;;;4.27;4.03;;;;;;;19.35;80.93;94844.72;4361487;32;20195;-63
2023/09/18 06:12:43;;;;;;;1.63;1.53;;;;;;;19.23;79.45;94862.59;4359425;32;20182;-61
2023/09/18 06:15:10;;;;;;;24.67;2.27;;;;;;;19.43;80.78;94860.62;4361221;32;20290;-62
2023/09/18 06:17:41;;;;;;;1.17;1.07;;;;;;;19.46;79.94;94867.97;4334379;32;20204;-62
2023/09/18 06:20:11;;;;;;;1.07;1.07;;;;;;;19.47;80.78;94856.06;4353507;32;20248;-61
2023/09/18 06:22:44;;;;;;;3.20;1.37;;;;;;;19.47;80.25;94860.69;4358927;32;20270;-62
2023/09/18 06:25:15;;;;;;;0.80;0.80;;;;;;;19.47;80.20;94853.38;4351303;32;20287;-62
2023/09/18 06:27:41;;;;;;;1.90;1.53;;;;;;;19.40;80.90;94849.78;4351236;32;20209;-62
2023/09/18 06:30:09;;;;;;;1.27;1.10;;;;;;;19.50;82.23;94851.91;4353084;32;20191;-62
2023/09/18 06:32:36;;;;;;;1.33;1.23;;;;;;;19.52;81.40;94852.34;4366241;32;20260;-62
2023/09/18 06:35:02;;;;;;;0.57;0.57;;;;;;;19.52;81.07;94847.72;4334696;32;20193;-62
2023/09/18 06:37:32;;;;;;;0.70;0.70;;;;;;;19.52;81.16;94863.09;4363108;32;20180;-62
2023/09/18 06:39:57;;;;;;;1.43;1.33;;;;;;;19.63;81.61;94864.03;4345155;32;20243;-60
2023/09/18 06:42:25;;;;;;;1.07;1.07;;;;;;;19.64;80.11;94864.81;4359443;32;20177;-62
2023/09/18 06:44:53;;;;;;;1.10;1.10;;;;;;;19.66;79.19;94870.59;4358935;32;20185;-62
2023/09/18 06:47:20;;;;;;;1.40;0.97;;;;;;;19.70;79.21;94868.75;4374141;32;20238;-63
2023/09/18 06:49:45;;;;;;;0.80;0.80;;;;;;;19.77;78.40;94866.13;4370852;32;20184;-63
2023/09/18 06:52:12;;;;;;;1.10;1.10;;;;;;;19.83;77.65;94865.47;4369246;32;20215;-62
2023/09/18 06:54:39;;;;;;;0.93;0.93;;;;;;;19.87;78.66;94879.75;4365572;32;20241;-62
2023/09/18 06:57:07;;;;;;;1.53;1.43;;;;;;;19.83;78.12;94876.25;4353089;32;20173;-61
2023/09/18 06:59:33;;;;;;;0.90;0.90;;;;;;;19.88;78.67;94880.53;4360253;32;20180;-62
2023/09/18 07:02:01;;;;;;;1.53;1.27;;;;;;;19.86;79.80;94893.59;4353440;32;20180;-62
2023/09/18 07:04:28;;;;;;;1.20;1.20;;;;;;;19.88;80.05;94902.84;4365141;32;20176;-62
2023/09/18 07:06:56;;;;;;;3.40;2.17;;;;;;;19.88;79.76;94915.53;4343226;32;20181;-62
2023/09/18 07:09:25;;;;;;;1.43;1.43;;;;;;;19.76;79.88;94923.81;4352193;32;20204;-62
2023/09/18 07:11:52;;;;;;;3.93;1.63;;;;;;;19.81;81.11;94932.34;4355115;32;20184;-61
2023/09/18 07:14:19;;;;;;;1.13;1.13;;;;;;;19.89;80.45;94931.34;4371370;32;20181;-61
2023/09/18 07:16:51;;;;;;;1.90;1.63;;;;;;;19.94;80.53;94919.50;4345182;32;20176;-62
2023/09/18 07:19:16;;;;;;;1.27;0.97;;;;;;;20.01;80.51;94927.66;4355571;32;20173;-62
2023/09/18 07:21:42;;;;;;;2.57;1.40;;;;;;;20.02;81.08;94921.12;4359496;32;20196;-61
2023/09/18 07:24:10;;;;;;;1.23;1.23;;;;;;;20.05;81.54;94925.78;4331617;32;20263;-61
2023/09/18 07:26:36;;;;;;;1.23;1.03;;;;;;;20.10;81.17;94944.34;4354900;32;20176;-61
2023/09/18 07:29:03;;;;;;;1.37;1.37;;;;;;;20.22;79.74;94951.44;4341663;32;20199;-62
2023/09/18 07:31:31;;;;;;;1.70;1.60;;;;;;;20.32;79.52;94931.94;4351262;32;20200;-62
2023/09/18 07:33:58;;;;;;;1.20;1.20;;;;;;;20.48;78.98;94923.72;4361804;32;20173;-62
2023/09/18 07:36:24;;;;;;;1.10;1.00;;;;;;;20.55;78.59;94932.66;4358121;32;20192;-61
2023/09/18 07:38:51;;;;;;;2.93;2.00;;;;;;;20.63;77.88;94938.13;4334535;32;20189;-62
2023/09/18 07:41:21;;;;;;;1.50;1.27;;;;;;;20.63;78.34;94938.13;4354217;32;20201;-62
2023/09/18 07:43:50;;;;;;;1.00;1.00;;;;;;;20.66;77.30;94937.41;4338029;32;20203;-61
2023/09/18 07:46:16;;;;;;;1.13;1.13;;;;;;;20.72;75.82;94941.34;4330360;32;20261;-62
2023/09/18 07:48:42;;;;;;;1.03;0.93;;;;;;;20.76;75.95;94939.47;4359243;32;20180;-61
2023/09/18 07:51:17;;;;;;;1.23;1.23;;;;;;;20.76;76.37;94944.84;4363193;32;20211;-62
2023/09/18 07:53:44;;;;;;;0.90;0.90;;;;;;;20.75;77.37;94946.78;4349902;32;20199;-62
2023/09/18 07:56:09;;;;;;;4.47;1.30;;;;;;;20.81;76.25;94947.22;4342684;32;20239;-62
2023/09/18 07:58:38;;;;;;;0.70;0.70;;;;;;;20.76;76.84;94951.03;4352439;32;20185;-62
2023/09/18 08:01:05;;;;;;;0.93;0.93;;;;;;;20.81;76.96;94956.06;4362073;32;20355;-62
2023/09/18 08:03:31;;;;;;;0.87;0.87;;;;;;;20.86;77.65;94968.47;4360659;32;20181;-62
2023/09/18 08:05:59;;;;;;;1.13;1.13;;;;;;;20.89;78.11;94975.81;4344435;32;20251;-60
2023/09/18 08:08:24;;;;;;;0.90;0.90;;;;;;;20.88;78.83;94974.28;4330664;32;20189;-62
2023/09/18 08:10:53;;;;;;;1.30;0.97;;;;;;;20.95;78.75;94974.38;4354002;32;20185;-62
2023/09/18 08:13:24;;;;;;;0.60;0.60;;;;;;;21.01;79.32;94972.09;4360962;32;20276;-61
2023/09/18 08:15:50;;;;;;;0.90;0.90;;;;;;;21.01;79.13;94978.25;4359208;32;20209;-62
2023/09/18 08:18:17;;;;;;;0.70;0.70;;;;;;;21.03;79.64;94975.97;4357763;32;20195;-62
2023/09/18 08:20:46;;;;;;;1.60;1.37;;;;;;;21.09;79.35;94985.31;4368957;32;20227;-60
2023/09/18 08:23:12;;;;;;;1.17;1.17;;;;;;;21.17;79.34;94981.56;4323984;32;20173;-62
2023/09/18 08:25:40;;;;;;;1.80;1.67;;;;;;;21.20;79.55;94975.41;4335275;32;20317;-62
2023/09/18 08:28:07;;;;;;;1.50;1.40;;;;;;;21.31;79.41;94988.28;4365575;32;20196;-62
2023/09/18 08:30:36;;;;;;;1.50;1.40;;;;;;;21.28;79.92;94981.69;4341410;32;20211;-63
2023/09/18 08:33:04;;;;;;;0.90;0.90;;;;;;;21.34;79.56;94990.22;4360778;32;20180;-62
2023/09/18 08:35:32;;;;;;;1.43;1.40;;;;;;;21.38;79.63;94996.44;4350679;32;20228;-61
2023/09/18 08:37:58;;;;;;;1.93;1.17;;;;;;;21.34;79.25;94993.72;4346817;32;20243;-60
2023/09/18 08:40:25;;;;;;;0.77;0.77;;;;;;;21.42;78.42;94997.25;4362341;32;20256;-61
2023/09/18 08:42:56;;;;;;;1.17;1.17;;;;;;;21.54;77.90;94994.28;4345213;32;20193;-61
2023/09/18 08:45:30;;;;;;;0.77;0.77;;;;;;;21.55;78.39;95012.03;4347057;32;20189;-60
2023/09/18 08:47:56;;;;;;;9.90;1.70;;;;;;;21.55;79.03;95007.41;4371801;32;20189;-60
2023/09/18 08:50:23;;;;;;;1.13;0.93;;;;;;;21.49;79.60;95021.63;4358226;32;20283;-60
2023/09/18 08:52:50;;;;;;;1.00;1.00;;;;;;;21.55;79.18;95020.16;4346440;32;20203;-61
2023/09/18 08:55:24;;;;;;;0.67;0.67;;;;;;;21.57;78.67;95031.34;4337921;32;20195;-60
2023/09/18 08:57:53;;;;;;;0.93;0.93;;;;;;;21.51;79.16;95022.81;4352138;32;20193;-60
2023/09/18 09:00:20;;;;;;;1.43;1.27;;;;;;;21.50;79.40;95031.28;4350190;32;20230;-61
2023/09/18 09:02:48;;;;;;;1.53;1.40;;;;;;;21.42;80.29;95035.81;4364146;32;20182;-61
2023/09/18 09:05:19;;;;;;;0.70;0.70;;;;;;;21.45;80.50;95037.00;4318418;32;20185;-61
2023/09/18 09:07:45;;;;;;;0.73;0.73;;;;;;;21.38;79.84;95042.34;4356161;32;20180;-61
2023/09/18 09:10:12;;;;;;;1.40;1.30;;;;;;;21.34;80.04;95053.09;4360177;32;20173;-60
2023/09/18 09:13:07;;;;;;;2.57;0.90;;;;;;;21.39;79.77;95062.78;4354405;32;20212;-60
2023/09/18 09:15:47;;;;;;;2.30;1.27;;;;;;;21.27;79.82;95069.19;4327534;32;20189;-61
2023/09/18 09:18:16;;;;;;;1.40;1.30;;;;;;;21.33;79.99;95069.66;4370592;32;20219;-61
2023/09/18 09:21:04;;;;;;;0.77;0.77;;;;;;;21.27;79.37;95053.00;4355276;32;20196;-60
2023/09/18 09:23:56;;;;;;;2.90;0.93;;;;;;;21.20;79.76;95053.69;4345784;32;20199;-61
2023/09/18 09:26:29;;;;;;;0.63;0.63;;;;;;;21.21;80.10;95052.53;4342582;32;20185;-61
2023/09/18 09:29:15;;;;;;;1.33;1.30;;;;;;;21.27;79.69;95047.59;4357001;32;20185;-60
2023/09/18 09:31:43;;;;;;;1.13;1.07;;;;;;;21.13;79.93;95040.09;4328058;32;20193;-60
2023/09/18 09:34:09;;;;;;;0.80;0.80;;;;;;;21.18;80.07;95053.25;4357211;32;20181;-61
2023/09/18 09:36:36;;;;;;;1.20;1.20;;;;;;;21.34;79.29;95044.22;4364394;32;20269;-61
2023/09/18 09:39:05;;;;;;;1.40;1.30;;;;;;;21.34;79.74;95044.22;4353831;32;20185;-61
2023/09/18 09:41:31;;;;;;;0.60;0.60;;;;;;;21.32;79.06;95041.88;4365485;32;20271;-61
2023/09/18 09:44:00;;;;;;;1.10;1.10;;;;;;;21.38;79.53;95034.25;4359523;32;20189;-61
2023/09/18 09:46:25;;;;;;;1.17;1.17;;;;;;;21.48;79.48;95038.97;4354996;32;20181;-61
2023/09/18 09:49:26;;;;;;;1.70;1.07;;;;;;;21.57;79.44;95036.75;4343641;32;20181;-62
2023/09/18 09:51:51;;;;;;;1.43;0.87;;;;;;;21.62;79.14;95039.09;4353391;32;20185;-62
2023/09/18 09:54:40;;;;;;;2.33;2.20;;;;;;;21.61;79.55;95054.53;4352197;32;20260;-62
2023/09/18 09:57:06;;;;;;;1.20;1.07;;;;;;;21.62;80.17;95055.28;4349652;32;20185;-62
2023/09/18 09:59:35;;;;;;;1.90;1.43;;;;;;;21.67;78.34;95063.06;4353195;32;20247;-62
2023/09/18 10:02:09;;;;;;;1.30;0.90;;;;;;;21.73;78.01;95068.91;4340734;32;20228;-61
2023/09/18 10:04:37;;;;;;;1.20;1.13;;;;;;;21.67;78.96;95076.56;4352338;32;20282;-61
2023/09/18 10:07:09;;;;;;;0.73;0.73;;;;;;;21.82;78.08;95072.13;4323949;32;20185;-61
2023/09/18 10:09:39;;;;;;;1.53;1.43;;;;;;;21.72;78.22;95070.84;4363612;32;20274;-61
2023/09/18 10:12:11;;;;;;;0.50;0.50;;;;;;;21.76;78.04;95073.59;4354812;32;20278;-61
2023/09/18 10:14:42;;;;;;;1.23;1.13;;;;;;;21.80;77.70;95066.31;4326248;32;20181;-61
2023/09/18 10:17:19;;;;;;;0.90;0.90;;;;;;;21.84;77.75;95064.38;4330670;32;20280;-60
2023/09/18 10:20:19;;;;;;;3.80;1.40;;;;;;;21.82;78.17;95053.22;4298521;32;20181;-60
2023/09/18 10:22:49;;;;;;;1.60;1.50;;;;;;;21.79;77.13;95053.94;4355800;32;20181;-61
2023/09/18 10:25:27;;;;;;;0.97;0.97;;;;;;;21.75;77.62;95047.72;4337161;32;20173;-61
2023/09/18 10:28:01;;;;;;;0.73;0.73;;;;;;;21.81;78.30;95062.47;4358004;32;20184;-60
2023/09/18 10:30:29;;;;;;;1.30;1.20;;;;;;;21.85;78.22;95061.31;4352488;32;20244;-61
2023/09/18 10:32:59;;;;;;;0.60;0.60;;;;;;;21.89;78.52;95064.06;4341364;32;20172;-61
2023/09/18 10:35:27;;;;;;;1.07;1.07;;;;;;;21.90;77.96;95058.28;4315570;32;20189;-61
2023/09/18 10:37:57;;;;;;;1.13;1.13;;;;;;;21.97;78.24;95064.91;4336282;32;20235;-61
2023/09/18 10:40:26;;;;;;;0.83;0.80;;;;;;;21.95;78.81;95076.09;4321515;32;20219;-60
2023/09/18 10:42:54;;;;;;;0.87;0.87;;;;;;;21.97;78.19;95083.81;4345414;32;20209;-61
2023/09/18 10:45:19;;;;;;;0.60;0.60;;;;;;;22.00;77.51;95089.31;4347379;32;20188;-61
2023/09/18 10:47:47;;;;;;;5.37;1.83;;;;;;;22.01;76.85;95087.38;4362248;32;20200;-60
2023/09/18 10:50:27;;;;;;;1.30;1.20;;;;;;;22.05;76.40;95088.94;4376746;32;20192;-60
2023/09/18 10:52:57;;;;;;;1.43;1.33;;;;;;;22.15;75.55;95087.50;4368000;32;20267;-61
2023/09/18 10:55:28;;;;;;;1.07;1.07;;;;;;;22.17;75.07;95087.91;4356624;32;20254;-60
2023/09/18 10:58:00;;;;;;;1.53;0.90;;;;;;;22.16;74.32;95086.34;4351565;32;20219;-63
2023/09/18 11:00:28;;;;;;;3.67;1.60;;;;;;;22.23;74.42;95089.12;4364002;32;20240;-60
2023/09/18 11:03:19;;;;;;;1.20;1.10;;;;;;;22.22;74.50;95084.87;4338829;32;20248;-60
2023/09/18 11:05:47;;;;;;;4.00;0.83;;;;;;;22.18;75.03;95086.75;4311460;32;20185;-60
2023/09/18 11:08:34;;;;;;;0.80;0.80;;;;;;;22.20;75.16;95084.47;4362126;32;20189;-60
2023/09/18 11:11:11;;;;;;;1.47;1.37;;;;;;;22.18;75.22;95086.75;4361366;32;20267;-61
2023/09/18 11:13:42;;;;;;;1.60;1.50;;;;;;;22.17;75.83;95090.59;4377018;32;20199;-61
2023/09/18 11:16:38;;;;;;;2.87;1.30;;;;;;;22.22;75.71;95098.38;4376221;32;20251;-61
2023/09/18 11:19:27;;;;;;;2.87;1.73;;;;;;;22.28;75.80;95103.03;4353650;32;20312;-61
2023/09/18 11:22:10;;;;;;;1.73;1.60;;;;;;;22.28;75.91;95097.63;4336398;32;20173;-61
2023/09/18 11:24:36;;;;;;;6.00;1.60;;;;;;;22.28;75.59;95102.28;4334912;32;20227;-62
2023/09/18 11:27:03;;;;;;;2.20;1.90;;;;;;;22.35;75.06;95101.56;4354238;32;20234;-62
2023/09/18 11:29:36;;;;;;;1.73;1.63;;;;;;;22.35;74.92;95113.16;4355427;32;20184;-62
2023/09/18 11:32:04;;;;;;;1.53;1.43;;;;;;;22.29;74.65;95109.22;4316484;32;20196;-61
2023/09/18 11:34:35;;;;;;;4.87;2.37;;;;;;;22.24;74.44;95109.56;4353954;32;20212;-62
2023/09/18 11:37:31;;;;;;;1.63;1.53;;;;;;;22.32;74.00;95127.41;4342736;32;20275;-62
2023/09/18 11:39:59;;;;;;;2.77;2.33;;;;;;;22.26;73.93;95129.66;4351399;32;20234;-61
2023/09/18 11:42:28;;;;;;;1.17;1.17;;;;;;;22.23;73.83;95135.06;4343091;32;20173;-61